Time;durP1;ratioP1;P1;durP2;ratioP2;P2;SDS_P1;SDS_P2;PMS_P1;PMS_P2;Temp;Humidity;BMP_temperature;BMP_pressure;BME280_temperature;BME280_humidity;BME280_pressure;Samples;Min_cycle;Max_cycle;Signal;HPM_P1;HPM_P2
2022/07/07 00:02:00;;;;;;;;;;;;;;;;;;;;;
2022/07/07 00:04:34;;;;;;;4.68;3.05;;;;;;;19.28;100.00;94666.91;4983812;28;20024;-92
2022/07/07 00:07:00;;;;;;;6.97;3.28;;;;;;;19.29;100.00;94662.38;4983484;28;20030;-92
2022/07/07 00:09:37;;;;;;;;;;;;;;;;;;;;;
2022/07/07 00:12:03;;;;;;;8.77;3.88;;;;;;;19.49;100.00;94659.06;4976162;28;20032;-90
2022/07/07 00:14:31;;;;;;;10.88;3.20;;;;;;;19.55;100.00;94658.88;4977672;28;20105;-92
2022/07/07 00:17:00;;;;;;;9.65;3.47;;;;;;;19.10;100.00;94657.41;4963284;28;20062;-92
2022/07/07 00:19:28;;;;;;;5.97;3.47;;;;;;;19.25;100.00;94651.59;4948655;28;20408;-92
2022/07/07 00:21:57;;;;;;;4.55;3.22;;;;;;;19.38;100.00;94649.84;4962622;28;20042;-92
2022/07/07 00:24:25;;;;;;;16.38;4.40;;;;;;;19.44;100.00;94647.81;4962777;28;20432;-91
2022/07/07 00:27:00;;;;;;;8.80;3.22;;;;;;;19.15;100.00;94647.41;4976819;28;20035;-92
2022/07/07 00:29:28;;;;;;;5.85;3.25;;;;;;;19.06;100.00;94650.06;4962708;28;20022;-92
2022/07/07 00:31:54;;;;;;;5.40;3.35;;;;;;;19.31;100.00;94645.03;4962502;28;20062;-92
2022/07/07 00:34:21;;;;;;;11.18;3.25;;;;;;;19.13;100.00;94651.47;4930580;28;20058;-91
2022/07/07 00:36:47;;;;;;;6.90;3.40;;;;;;;19.09;100.00;94640.69;4962296;28;20037;-92
2022/07/07 00:39:24;;;;;;;;;;;;;;;;;;;;;
2022/07/07 00:41:54;;;;;;;10.18;3.50;;;;;;;18.76;100.00;94635.84;4963623;28;20033;-92
2022/07/07 00:44:30;;;;;;;;;;;;;;;;;;;;;
2022/07/07 00:47:08;;;;;;;;;;;;;;;;;;;;;
2022/07/07 00:49:40;;;;;;;8.40;3.42;;;;;;;18.49;100.00;94637.72;4963350;28;20033;-91
2022/07/07 00:52:14;;;;;;;12.43;3.95;;;;;;;18.44;100.00;94635.97;4962626;28;20057;-92
2022/07/07 00:54:42;;;;;;;12.27;3.35;;;;;;;18.31;100.00;94634.25;4947356;28;20070;-92
2022/07/07 00:57:11;;;;;;;8.32;3.08;;;;;;;18.29;100.00;94641.72;4946027;28;20031;-92
2022/07/07 00:59:38;;;;;;;7.50;3.20;;;;;;;18.60;100.00;94633.66;4962051;28;20034;-92
2022/07/07 01:02:04;;;;;;;7.78;3.60;;;;;;;18.65;100.00;94638.03;4962112;28;20498;-91
2022/07/07 01:04:31;;;;;;;9.60;3.83;;;;;;;18.47;100.00;94635.34;4961403;28;20039;-92
2022/07/07 01:06:59;;;;;;;8.77;3.60;;;;;;;18.64;100.00;94633.81;4946002;28;20488;-91
2022/07/07 01:09:25;;;;;;;6.78;3.55;;;;;;;18.44;100.00;94638.63;4946340;28;20081;-91
2022/07/07 01:11:54;;;;;;;7.07;3.08;;;;;;;18.50;100.00;94633.97;4930328;28;20121;-91
2022/07/07 01:14:30;;;;;;;;;;;;;;;;;;;;;
2022/07/07 01:16:59;;;;;;;11.98;4.13;;;;;;;18.38;100.00;94629.28;4962922;28;20029;-92
2022/07/07 01:19:35;;;;;;;;;;;;;;;;;;;;;
2022/07/07 01:22:14;;;;;;;7.95;3.10;;;;;;;18.32;100.00;94626.00;4962842;28;20033;-92
2022/07/07 01:24:49;;;;;;;;;;;;;;;;;;;;;
2022/07/07 01:27:17;;;;;;;7.00;3.80;;;;;;;18.19;100.00;94617.06;4962658;28;20026;-92
2022/07/07 01:29:50;;;;;;;4.80;2.97;;;;;;;18.39;100.00;94625.53;4961258;28;20472;-91
2022/07/07 01:32:19;;;;;;;5.03;3.30;;;;;;;18.12;100.00;94627.34;4961758;28;20117;-91
2022/07/07 01:34:48;;;;;;;7.35;4.35;;;;;;;17.93;100.00;94628.38;4961230;28;20432;-91
2022/07/07 01:37:24;;;;;;;;;;;;;;;;;;;;;
2022/07/07 01:39:50;;;;;;;8.40;3.65;;;;;;;18.19;100.00;94619.72;4962582;28;20049;-92
2022/07/07 01:42:16;;;;;;;7.93;2.63;;;;;;;18.27;100.00;94625.34;4961062;28;20106;-92
2022/07/07 01:44:51;;;;;;;5.25;3.03;;;;;;;18.23;100.00;94622.53;4978105;28;20084;-91
2022/07/07 01:47:20;;;;;;;9.40;3.42;;;;;;;18.27;100.00;94620.03;4962529;28;20031;-92
2022/07/07 01:49:46;;;;;;;7.60;3.30;;;;;;;18.30;100.00;94616.78;4960873;28;20122;-91
2022/07/07 01:53:05;;;;;;;6.95;3.45;;;;;;;18.24;100.00;94608.19;4944984;28;20062;-92
2022/07/07 01:55:39;;;;;;;8.38;3.50;;;;;;;18.12;100.00;94622.06;4978016;28;20113;-92
2022/07/07 01:58:14;;;;;;;;;;;;;;;17.84;100.00;94616.16;4962515;28;20424;-92
2022/07/07 02:00:39;;;;;;;7.53;3.47;;;;;;;17.69;100.00;94618.13;4977904;28;19910;-91
2022/07/07 02:03:05;;;;;;;4.07;3.15;;;;;;;17.84;100.00;94618.81;4977933;28;20037;-92
2022/07/07 02:05:30;;;;;;;6.50;3.67;;;;;;;17.87;100.00;94621.63;4977902;28;20030;-91
2022/07/07 02:07:58;;;;;;;6.63;3.50;;;;;;;18.03;100.00;94621.25;4960780;28;20170;-92
2022/07/07 02:13:07;;;;;;;8.00;3.47;;;;;;;17.59;100.00;94627.16;4963335;28;20042;-92
2022/07/07 02:15:33;;;;;;;8.13;3.53;;;;;;;17.50;100.00;94621.81;4960438;28;20038;-91
2022/07/07 02:17:59;;;;;;;8.07;3.55;;;;;;;17.44;100.00;94627.53;4944534;28;20035;-91
2022/07/07 02:20:28;;;;;;;5.40;3.45;;;;;;;17.52;100.00;94629.47;4961221;28;20062;-92
2022/07/07 02:23:00;;;;;;;9.77;3.60;;;;;;;17.51;100.00;94627.91;4944955;28;20337;-92
2022/07/07 02:25:26;;;;;;;5.70;3.00;;;;;;;17.67;100.00;94625.63;4961103;28;20026;-92
2022/07/07 02:27:55;;;;;;;7.47;3.30;;;;;;;17.80;100.00;94629.25;4960784;28;20488;-92
2022/07/07 02:30:31;;;;;;;8.02;3.08;;;;;;;17.87;100.00;94631.47;4960994;28;20033;-91
2022/07/07 02:32:57;;;;;;;5.50;3.10;;;;;;;17.97;100.00;94638.34;4955159;28;20042;-92
2022/07/07 02:35:25;;;;;;;3.67;3.08;;;;;;;18.02;100.00;94628.44;4960558;28;20037;-92
2022/07/07 02:37:58;;;;;;;5.78;3.10;;;;;;;18.07;100.00;94632.78;4944839;28;20062;-92
2022/07/07 02:40:24;;;;;;;6.30;2.80;;;;;;;18.07;100.00;94636.22;4976460;28;20053;-91
2022/07/07 02:42:50;;;;;;;5.88;3.20;;;;;;;18.10;100.00;94634.84;4971711;28;20029;-92
2022/07/07 02:45:16;;;;;;;7.35;3.17;;;;;;;17.55;100.00;94618.25;4960773;28;20065;-91
2022/07/07 02:47:41;;;;;;;7.07;3.15;;;;;;;17.52;100.00;94624.16;4960379;28;20062;-92
2022/07/07 02:50:07;;;;;;;7.78;4.07;;;;;;;17.43;100.00;94616.19;4944736;28;20034;-92
2022/07/07 02:52:33;;;;;;;8.05;3.30;;;;;;;17.36;100.00;94613.97;4960199;28;20034;-92
2022/07/07 02:54:59;;;;;;;6.57;3.00;;;;;;;17.64;100.00;94618.28;4960489;28;20031;-91
2022/07/07 02:57:28;;;;;;;8.00;3.40;;;;;;;17.75;100.00;94611.63;4960717;28;20034;-91
2022/07/07 02:59:54;;;;;;;5.88;3.60;;;;;;;17.81;100.00;94615.69;4977555;28;20035;-91
2022/07/07 03:02:21;;;;;;;10.20;3.75;;;;;;;17.46;100.00;94628.00;4977428;28;20037;-92
2022/07/07 03:04:49;;;;;;;9.15;3.33;;;;;;;17.24;100.00;94630.41;4944664;28;20038;-92
2022/07/07 03:07:22;;;;;;;10.50;4.13;;;;;;;17.26;100.00;94626.66;4960709;28;20122;-92
2022/07/07 03:09:48;;;;;;;7.80;3.77;;;;;;;17.09;100.00;94628.91;4948674;28;20034;-92
2022/07/07 03:12:14;;;;;;;6.90;3.95;;;;;;;17.29;100.00;94626.84;4947673;28;20286;-92
2022/07/07 03:14:40;;;;;;;4.90;3.20;;;;;;;17.44;100.00;94638.13;4981050;28;20062;-91
2022/07/07 03:17:08;;;;;;;4.68;3.15;;;;;;;17.59;100.00;94629.78;4963768;28;20065;-92
2022/07/07 03:19:39;;;;;;;13.48;3.85;;;;;;;17.28;100.00;94638.53;4964111;28;20110;-91
2022/07/07 03:22:07;;;;;;;6.32;3.45;;;;;;;17.09;100.00;94628.91;4948561;28;20031;-92
2022/07/07 03:24:39;;;;;;;8.52;3.15;;;;;;;17.39;100.00;94639.03;4963662;28;20035;-91
2022/07/07 03:27:10;;;;;;;6.45;3.40;;;;;;;17.52;100.00;94630.22;4963555;28;20031;-92
2022/07/07 03:29:45;;;;;;;;;;;;;;;;;;;;;
2022/07/07 03:32:12;;;;;;;8.50;3.13;;;;;;;17.14;100.00;94632.53;4965477;28;20026;-91
2022/07/07 03:34:42;;;;;;;8.00;3.50;;;;;;;17.08;100.00;94637.16;4947976;28;20090;-92
2022/07/07 03:37:08;;;;;;;9.40;3.33;;;;;;;17.00;100.00;94627.28;4963403;28;20039;-91
2022/07/07 03:39:33;;;;;;;9.02;2.97;;;;;;;17.06;100.00;94628.72;4963593;28;20043;-91
2022/07/07 03:41:59;;;;;;;11.70;3.20;;;;;;;17.24;100.00;94625.09;4947498;28;20030;-91
2022/07/07 03:44:27;;;;;;;4.60;2.70;;;;;;;17.33;100.00;94627.03;4962977;28;20034;-92
2022/07/07 03:46:54;;;;;;;4.78;2.50;;;;;;;17.40;100.00;94624.72;4963544;28;20423;-92
2022/07/07 03:49:20;;;;;;;5.38;3.05;;;;;;;17.18;100.00;94628.19;4980419;28;20037;-91
2022/07/07 03:51:45;;;;;;;7.22;3.03;;;;;;;16.92;100.00;94623.47;4980320;28;20037;-92
2022/07/07 03:54:11;;;;;;;5.97;3.30;;;;;;;16.84;100.00;94622.31;4962942;28;20031;-91
2022/07/07 03:56:37;;;;;;;5.65;2.97;;;;;;;16.87;100.00;94627.03;4963182;28;20062;-92
2022/07/07 03:59:05;;;;;;;5.18;3.00;;;;;;;16.90;100.00;94631.72;4947554;28;20038;-91
2022/07/07 04:05:03;;;;;;;5.13;3.15;;;;;;;17.32;100.00;94628.88;4980028;28;20090;-92
2022/07/07 04:07:39;;;;;;;;;;;;;;;;;;;;;
2022/07/07 04:10:15;;;;;;;;;;;;;;;;;;;;;
2022/07/07 04:12:43;;;;;;;6.45;2.85;;;;;;;17.12;100.00;94626.75;4980002;28;20033;-92
2022/07/07 04:15:18;;;;;;;4.85;2.88;;;;;;;17.25;100.00;94625.91;4979859;28;20035;-92
2022/07/07 04:17:46;;;;;;;4.97;2.97;;;;;;;17.56;100.00;94629.63;4980123;28;20030;-91
2022/07/07 04:20:12;;;;;;;4.43;2.58;;;;;;;17.52;100.00;94626.81;4962599;28;20030;-89
2022/07/07 04:22:38;;;;;;;15.35;3.03;;;;;;;17.36;100.00;94631.72;4979902;28;20031;-89
2022/07/07 04:25:04;;;;;;;4.72;2.47;;;;;;;17.56;100.00;94625.09;4962508;28;20400;-89
2022/07/07 04:27:29;;;;;;;7.10;2.78;;;;;;;17.46;100.00;94615.56;4962688;28;20432;-89
2022/07/07 04:29:55;;;;;;;9.07;3.30;;;;;;;17.09;100.00;94615.69;4962547;28;20037;-89
2022/07/07 04:32:21;;;;;;;6.72;3.13;;;;;;;16.97;100.00;94615.41;4979748;28;20039;-90
2022/07/07 04:34:48;;;;;;;5.35;2.83;;;;;;;16.93;100.00;94611.81;4945965;28;20042;-89
2022/07/07 04:37:14;;;;;;;4.63;2.55;;;;;;;17.10;100.00;94619.09;4962603;28;20042;-90
2022/07/07 04:39:39;;;;;;;7.40;2.58;;;;;;;17.57;100.00;94620.56;4946345;28;20031;-89
2022/07/07 04:42:05;;;;;;;5.13;2.67;;;;;;;17.58;100.00;94625.59;4979344;28;20121;-89
2022/07/07 04:44:31;;;;;;;5.65;2.70;;;;;;;17.81;100.00;94626.28;4961873;28;20109;-89
2022/07/07 04:46:57;;;;;;;6.32;2.60;;;;;;;18.01;100.00;94626.03;4979342;28;20122;-89
2022/07/07 04:49:23;;;;;;;5.03;2.35;;;;;;;18.07;100.00;94630.94;4979089;28;20510;-89
2022/07/07 04:51:48;;;;;;;4.55;2.80;;;;;;;17.80;100.00;94634.56;4962081;28;20030;-89
2022/07/07 04:54:14;;;;;;;5.72;2.50;;;;;;;17.73;100.00;94628.91;4961776;28;20442;-89
2022/07/07 04:56:40;;;;;;;5.85;2.80;;;;;;;17.75;100.00;94624.88;4946231;28;20034;-89
2022/07/07 04:59:06;;;;;;;6.43;2.00;;;;;;;17.89;100.00;94627.41;4961818;28;20030;-90
2022/07/07 05:01:33;;;;;;;8.02;2.53;;;;;;;18.32;100.00;94622.53;4945832;28;20432;-89
2022/07/07 05:04:01;;;;;;;6.65;2.50;;;;;;;18.72;100.00;94626.94;4961865;28;20035;-90
2022/07/07 05:06:27;;;;;;;5.70;2.50;;;;;;;19.01;100.00;94633.50;4945994;28;20037;-90
2022/07/07 05:08:52;;;;;;;4.00;2.28;;;;;;;19.21;100.00;94640.03;4961383;28;20027;-89
2022/07/07 05:11:18;;;;;;;2.65;2.03;;;;;;;19.46;100.00;94637.63;4962225;28;20412;-90
2022/07/07 05:13:44;;;;;;;4.70;2.60;;;;;;;18.91;100.00;94642.53;4961485;28;20030;-90
2022/07/07 05:16:11;;;;;;;3.75;2.22;;;;;;;18.80;100.00;94652.69;4961366;28;20026;-90
2022/07/07 05:18:37;;;;;;;10.05;2.50;;;;;;;18.98;100.00;94658.00;4946117;28;20022;-90
2022/07/07 05:21:02;;;;;;;6.85;2.53;;;;;;;19.04;100.00;94662.09;4945047;28;20324;-90
2022/07/07 05:23:28;;;;;;;3.15;2.20;;;;;;;19.30;100.00;94656.75;4945442;28;20031;-91
2022/07/07 05:25:54;;;;;;;4.63;2.60;;;;;;;19.01;100.00;94655.53;4961452;28;20034;-90
2022/07/07 05:28:20;;;;;;;10.90;2.97;;;;;;;18.79;100.00;94656.44;4945577;28;20034;-90
2022/07/07 05:30:45;;;;;;;6.85;3.00;;;;;;;18.98;100.00;94666.75;4960860;28;20479;-90
2022/07/07 05:33:12;;;;;;;5.03;2.40;;;;;;;19.44;100.00;94669.06;4945567;28;20424;-91
2022/07/07 05:35:37;;;;;;;5.10;2.45;;;;;;;19.50;100.00;94665.94;4961104;28;20121;-90
2022/07/07 05:38:03;;;;;;;5.55;2.10;;;;;;;19.66;100.00;94664.66;4961208;28;20038;-89
2022/07/07 05:40:30;;;;;;;7.45;2.35;;;;;;;19.84;100.00;94674.13;4945503;28;20134;-90
2022/07/07 05:42:55;;;;;;;7.50;2.70;;;;;;;19.60;100.00;94674.66;4961160;28;20034;-90
2022/07/07 05:45:22;;;;;;;6.53;2.35;;;;;;;19.64;100.00;94671.03;4961045;28;20037;-90
2022/07/07 05:47:48;;;;;;;3.47;2.20;;;;;;;19.80;100.00;94670.53;4977954;28;20035;-91
2022/07/07 05:50:13;;;;;;;8.18;2.17;;;;;;;20.28;100.00;94681.91;4961250;28;20038;-94
2022/07/07 05:52:39;;;;;;;4.80;2.08;;;;;;;20.55;100.00;94681.78;4945494;28;20034;-93
2022/07/07 05:55:05;;;;;;;3.47;2.10;;;;;;;20.64;100.00;94679.81;4945671;28;20086;-93
2022/07/07 05:57:32;;;;;;;3.47;2.10;;;;;;;20.47;100.00;94675.41;4945066;28;20089;-94
2022/07/07 05:59:59;;;;;;;4.03;2.20;;;;;;;20.93;100.00;94674.78;4961824;28;20046;-93
2022/07/07 06:02:25;;;;;;;5.85;2.17;;;;;;;21.14;100.00;94672.13;4946474;28;20031;-93
2022/07/07 06:05:08;;;;;;;;;;;;;;;;;;;;;
2022/07/07 06:07:34;;;;;;;3.83;2.03;;;;;;;21.19;100.00;94678.03;4963586;28;20027;-94
2022/07/07 06:10:11;;;;;;;6.25;2.47;;;;;;;21.27;100.00;94679.03;4961618;28;20041;-90
2022/07/07 06:12:40;;;;;;;4.68;2.30;;;;;;;21.47;100.00;94682.78;4960832;28;20054;-89
2022/07/07 06:15:09;;;;;;;6.47;2.92;;;;;;;21.52;100.00;94679.13;4960744;28;20038;-91
2022/07/07 06:17:37;;;;;;;3.05;2.28;;;;;;;21.55;100.00;94683.00;4959332;28;20081;-89
2022/07/07 06:20:20;;;;;;;;;;;;;;;;;;;;;
2022/07/07 06:22:48;;;;;;;3.70;2.58;;;;;;;21.48;100.00;94686.19;4961968;28;20460;-90
2022/07/07 06:25:26;;;;;;;;;;;;;;;;;;;;;
2022/07/07 06:28:11;;;;;;;;;;;;;;;;;;;;;
2022/07/07 06:30:53;;;;;;;3.03;2.33;;;;;;;21.63;100.00;94697.34;4977938;28;20041;-91
2022/07/07 06:33:40;;;;;;;;;;;;;;;;;;;;;
2022/07/07 06:36:08;;;;;;;7.32;2.42;;;;;;;21.44;100.00;94702.06;4978732;28;20035;-90
2022/07/07 06:38:37;;;;;;;5.85;2.30;;;;;;;21.67;100.00;94706.28;4946194;28;20090;-91
2022/07/07 06:41:17;;;;;;;;;;;;;;;;;;;;;
2022/07/07 06:43:45;;;;;;;6.82;2.05;;;;;;;21.66;100.00;94710.84;4980936;28;20026;-90
2022/07/07 06:46:31;;;;;;;;;;;;;;;;;;;;;
2022/07/07 06:49:32;;;;;;;;;;;;;;;;;;;;;
2022/07/07 06:52:13;;;;;;;;;;;;;;;;;;;;;
2022/07/07 06:54:39;;;;;;;6.93;2.00;;;;;;;22.17;100.00;94713.25;4965667;28;20035;-87
2022/07/07 06:57:16;;;;;;;;;;;;;;;;;;;;;
2022/07/07 06:59:49;;;;;;;6.80;2.10;;;;;;;22.53;100.00;94716.25;4965773;28;20030;-90
2022/07/07 07:02:15;;;;;;;3.08;1.60;;;;;;;22.75;100.00;94716.91;4981187;28;20034;-89
2022/07/07 07:04:51;;;;;;;2.67;1.98;;;;;;;22.79;100.00;94719.66;4981306;28;20031;-90
2022/07/07 07:07:31;;;;;;;;;;;;;;;;;;;;;
2022/07/07 07:10:35;;;;;;;2.85;1.65;;;;;;;23.05;100.00;94721.97;4981139;28;20033;-90
2022/07/07 07:13:13;;;;;;;;;;;;;;;;;;;;;
2022/07/07 07:15:51;;;;;;;;;;;;;;;;;;;;;
2022/07/07 07:18:50;;;;;;;2.78;2.10;;;;;;;23.23;100.00;94721.69;4964863;28;20435;-90
2022/07/07 07:21:31;;;;;;;4.63;1.58;;;;;;;23.48;100.00;94716.28;4979187;28;20482;-88
2022/07/07 07:23:59;;;;;;;9.02;1.88;;;;;;;23.63;100.00;94712.06;4980949;28;20031;-88
2022/07/07 07:26:27;;;;;;;7.55;2.08;;;;;;;23.48;100.00;94705.59;4964075;28;20053;-89
2022/07/07 07:28:52;;;;;;;3.58;1.90;;;;;;;23.44;100.00;94705.47;4963817;28;20034;-89
2022/07/07 07:31:18;;;;;;;6.00;1.80;;;;;;;23.61;100.00;94708.97;4980910;28;20031;-90
2022/07/07 07:33:47;;;;;;;3.13;1.70;;;;;;;23.26;100.00;94712.97;4981021;28;20134;-89
2022/07/07 07:36:12;;;;;;;3.42;2.00;;;;;;;23.18;100.00;94706.66;4982386;28;20043;-88
2022/07/07 07:38:39;;;;;;;4.38;1.60;;;;;;;23.37;100.00;94711.41;4981460;28;20038;-89
2022/07/07 07:41:09;;;;;;;6.25;1.60;;;;;;;23.36;100.00;94707.19;4980923;28;20046;-89
2022/07/07 07:43:35;;;;;;;2.47;1.40;;;;;;;23.52;100.00;94704.53;4963843;28;20034;-88
2022/07/07 07:46:08;;;;;;;7.63;1.48;;;;;;;23.76;93.12;94710.88;4980763;28;20432;-91
2022/07/07 07:48:33;;;;;;;3.55;1.60;;;;;;;23.67;100.00;94705.69;4965321;28;20042;-89
2022/07/07 07:50:59;;;;;;;5.18;1.92;;;;;;;23.64;100.00;94694.88;4980161;28;20031;-89
2022/07/07 07:53:24;;;;;;;2.70;1.35;;;;;;;23.82;100.00;94698.81;4962811;28;20027;-90
2022/07/07 07:55:50;;;;;;;5.15;1.73;;;;;;;24.13;98.51;94702.66;4979999;28;20030;-89
2022/07/07 07:58:16;;;;;;;3.78;1.20;;;;;;;24.18;98.46;94698.16;4980147;28;20039;-89
2022/07/07 08:00:41;;;;;;;2.03;1.60;;;;;;;24.22;90.13;94702.47;4963151;28;20031;-88
2022/07/07 08:03:07;;;;;;;1.98;1.38;;;;;;;23.98;77.99;94700.72;4962880;28;20038;-88
2022/07/07 08:05:32;;;;;;;3.53;1.63;;;;;;;23.76;87.04;94705.53;4963088;28;20344;-88
2022/07/07 08:08:05;;;;;;;5.85;1.30;;;;;;;24.33;89.89;94704.63;4980205;28;20117;-90
2022/07/07 08:10:33;;;;;;;5.00;1.58;;;;;;;24.42;86.23;94697.94;4963798;28;20408;-89
2022/07/07 08:12:58;;;;;;;5.95;1.50;;;;;;;24.31;81.06;94688.09;4980345;28;20050;-90
2022/07/07 08:15:24;;;;;;;6.25;3.00;;;;;;;24.38;87.70;94688.28;4962775;28;20424;-88
2022/07/07 08:17:51;;;;;;;4.93;1.40;;;;;;;24.59;86.05;94682.63;4962798;28;20340;-89
2022/07/07 08:20:17;;;;;;;3.45;1.70;;;;;;;24.14;86.14;94673.97;4963170;28;20115;-87
2022/07/07 08:22:43;;;;;;;4.00;1.75;;;;;;;23.77;87.17;94664.28;4946899;28;20424;-88
2022/07/07 08:25:08;;;;;;;5.78;1.40;;;;;;;24.02;94.38;94666.78;4946963;28;20035;-88
2022/07/07 08:27:34;;;;;;;4.80;1.70;;;;;;;24.14;99.31;94661.38;4946822;28;20106;-89
2022/07/07 08:30:00;;;;;;;9.60;1.40;;;;;;;24.32;94.77;94665.56;4954759;28;20030;-89
2022/07/07 08:32:25;;;;;;;2.80;1.30;;;;;;;24.68;88.55;94667.13;4962636;28;20340;-89
2022/07/07 08:34:51;;;;;;;5.40;1.73;;;;;;;24.47;77.58;94656.75;4962612;28;20039;-89
2022/07/07 08:37:16;;;;;;;3.80;1.40;;;;;;;24.74;77.81;94659.56;4979543;28;20344;-88
2022/07/07 08:39:42;;;;;;;3.63;1.42;;;;;;;24.91;80.33;94663.78;4962339;28;20455;-89
2022/07/07 08:42:08;;;;;;;2.72;1.45;;;;;;;25.17;77.21;94665.06;4962946;28;20034;-90
2022/07/07 08:44:33;;;;;;;1.98;1.27;;;;;;;25.30;71.31;94659.56;4962154;28;20038;-88
2022/07/07 08:46:59;;;;;;;3.50;1.20;;;;;;;25.46;72.48;94670.94;4946477;28;20039;-88
2022/07/07 08:49:26;;;;;;;2.65;1.30;;;;;;;24.99;72.27;94660.13;4962256;28;20412;-88
2022/07/07 08:51:52;;;;;;;3.70;1.48;;;;;;;25.13;74.05;94667.66;4962259;28;20042;-88
2022/07/07 08:54:17;;;;;;;3.22;1.52;;;;;;;25.39;74.33;94658.19;4961479;28;20030;-89
2022/07/07 08:56:43;;;;;;;5.88;1.50;;;;;;;25.35;77.05;94665.41;4979882;28;20043;-89
2022/07/07 08:59:13;;;;;;;2.03;1.58;;;;;;;25.45;75.60;94672.09;4945976;28;20049;-89
2022/07/07 09:01:38;;;;;;;2.97;1.25;;;;;;;25.40;74.14;94665.09;4962243;28;20089;-90
2022/07/07 09:04:04;;;;;;;3.22;1.70;;;;;;;25.54;73.75;94672.66;4962130;28;20039;-89
2022/07/07 09:06:38;;;;;;;2.75;1.60;;;;;;;25.59;72.18;94666.22;4944882;28;20042;-90
2022/07/07 09:09:05;;;;;;;2.50;1.45;;;;;;;25.36;73.54;94663.47;4961644;28;20074;-87
2022/07/07 09:11:35;;;;;;;3.85;1.50;;;;;;;25.43;75.87;94666.31;4946269;28;20062;-92
2022/07/07 09:14:16;;;;;;;1.67;1.40;;;;;;;25.13;70.32;94677.63;4961836;28;20034;-88
2022/07/07 09:16:42;;;;;;;3.50;1.45;;;;;;;25.80;74.78;94667.72;4945978;28;20031;-89
2022/07/07 09:19:20;;;;;;;1.35;1.20;;;;;;;25.92;72.76;94664.06;4945700;28;20081;-88
2022/07/07 09:21:48;;;;;;;2.13;1.42;;;;;;;25.86;73.95;94655.56;4961936;28;20033;-88
2022/07/07 09:24:14;;;;;;;5.70;1.50;;;;;;;26.05;75.38;94652.03;4945926;28;20124;-88
2022/07/07 09:26:45;;;;;;;1.75;1.20;;;;;;;26.09;74.35;94644.78;4961938;28;20031;-91
2022/07/07 09:29:22;;;;;;;2.13;1.40;;;;;;;26.24;73.76;94648.50;4945885;28;20054;-89
2022/07/07 09:32:04;;;;;;;3.42;2.05;;;;;;;26.32;70.77;94649.38;4946083;28;20027;-88
2022/07/07 09:34:36;;;;;;;4.43;1.63;;;;;;;25.75;70.32;94650.00;4946036;28;20030;-90
2022/07/07 09:39:55;;;;;;;1.85;1.50;;;;;;;26.46;71.86;94650.72;4963764;28;20030;-89
2022/07/07 09:42:31;;;;;;;2.80;1.42;;;;;;;26.61;66.81;94644.41;4961483;28;20034;-89
2022/07/07 09:44:58;;;;;;;2.20;1.40;;;;;;;26.43;67.74;94635.34;4945644;28;20023;-90
2022/07/07 09:47:24;;;;;;;3.08;1.30;;;;;;;26.00;71.38;94638.13;4978115;28;20081;-88
2022/07/07 09:50:04;;;;;;;5.03;1.35;;;;;;;25.54;69.33;94650.44;4961212;28;20030;-88
2022/07/07 09:52:31;;;;;;;3.38;1.50;;;;;;;26.39;73.63;94637.97;4944753;28;20035;-89
2022/07/07 09:54:58;;;;;;;2.50;1.45;;;;;;;26.53;70.09;94638.16;4961306;28;20379;-88
2022/07/07 09:57:23;;;;;;;3.08;1.40;;;;;;;26.50;67.52;94632.72;4961139;28;20090;-88
2022/07/07 09:59:52;;;;;;;3.75;1.63;;;;;;;26.27;76.46;94627.44;4945284;28;20376;-90
2022/07/07 10:02:22;;;;;;;2.78;1.42;;;;;;;26.49;76.46;94620.44;4961528;28;20109;-87
2022/07/07 10:04:52;;;;;;;2.13;1.30;;;;;;;26.07;77.38;94622.13;4977528;28;20027;-88
2022/07/07 10:07:23;;;;;;;4.28;1.50;;;;;;;26.20;80.67;94622.72;4960861;28;20113;-88
2022/07/07 10:09:54;;;;;;;5.68;1.80;;;;;;;26.37;80.70;94634.88;4960967;28;20026;-88
2022/07/07 10:12:21;;;;;;;2.35;1.50;;;;;;;26.83;74.59;94633.94;4961122;28;20061;-90
2022/07/07 10:14:49;;;;;;;8.57;2.13;;;;;;;26.82;74.13;94635.03;4936328;29;20448;-89
2022/07/07 10:17:16;;;;;;;1.98;1.73;;;;;;;27.10;77.16;94633.84;4925705;29;20496;-89
2022/07/07 10:19:46;;;;;;;2.10;1.45;;;;;;;27.27;81.43;94637.88;4925963;29;20031;-90
2022/07/07 10:22:21;;;;;;;3.65;1.50;;;;;;;27.10;77.67;94634.66;4926355;29;20527;-90
2022/07/07 10:24:47;;;;;;;2.03;1.42;;;;;;;26.90;80.45;94635.94;4942278;29;20058;-89
2022/07/07 10:30:11;;;;;;;;;;;;;;;;;;;;;
2022/07/07 10:33:29;;;;;;;;;;;;;;;;;;;;;
2022/07/07 10:35:55;;;;;;;3.42;1.60;;;;;;;27.35;80.43;94628.75;4977815;28;20038;-87
2022/07/07 10:38:20;;;;;;;2.63;1.48;;;;;;;27.31;83.89;94627.94;4960852;28;20377;-90
2022/07/07 10:40:55;;;;;;;2.05;1.25;;;;;;;27.83;84.56;94629.97;4960499;28;20065;-91
2022/07/07 10:43:32;;;;;;;2.70;1.50;;;;;;;27.44;80.88;94628.47;4944790;28;20117;-89
2022/07/07 10:46:01;;;;;;;2.97;1.70;;;;;;;27.21;84.20;94631.31;4960755;28;20319;-90
2022/07/07 10:48:47;;;;;;;3.78;1.50;;;;;;;27.54;85.32;94621.66;4960494;28;20444;-87
2022/07/07 10:51:18;;;;;;;4.93;1.80;;;;;;;27.26;84.83;94619.41;4960003;28;20460;-91
2022/07/07 10:54:18;;;;;;;8.52;1.80;;;;;;;27.35;87.23;94614.53;4972978;28;20027;-88
2022/07/07 10:56:55;;;;;;;2.83;1.75;;;;;;;28.07;85.92;94607.06;4931116;29;20051;-89
2022/07/07 10:59:35;;;;;;;5.97;2.10;;;;;;;27.50;81.60;94607.38;4957464;29;20027;-90
2022/07/07 11:02:13;;;;;;;;;;;;;;;;;;;;;
2022/07/07 11:04:52;;;;;;;;;;;;;;;;;;;;;
2022/07/07 11:07:28;;;;;;;3.55;1.67;;;;;;;28.10;79.21;94584.00;4958211;29;20432;-90
2022/07/07 11:10:00;;;;;;;3.00;1.60;;;;;;;28.03;78.89;94590.13;4958364;29;20027;-90
2022/07/07 11:12:55;;;;;;;;;;;;;;;;;;;;;
2022/07/07 11:15:23;;;;;;;3.63;1.70;;;;;;;28.13;82.17;94575.16;4975143;28;20033;-91
2022/07/07 11:18:18;;;;;;;;;;;;;;;;;;;;;
2022/07/07 11:21:08;;;;;;;;;;;;;;;;;;;;;
2022/07/07 11:24:18;;;;;;;4.63;1.67;;;;;;;27.48;73.77;94566.63;4977252;28;20443;-89
2022/07/07 11:26:57;;;;;;;6.22;2.22;;;;;;;27.56;81.94;94570.94;4949899;28;20038;-89
2022/07/07 11:29:31;;;;;;;3.22;2.03;;;;;;;27.34;83.20;94565.34;4961949;28;20121;-89
2022/07/07 11:32:18;;;;;;;;;;;;;;;;;;;;;
2022/07/07 11:35:07;;;;;;;;;;;;;;;;;;;;;
2022/07/07 11:37:41;;;;;;;1.90;1.58;;;;;;;27.77;75.98;94564.19;4980517;28;20041;-89
2022/07/07 11:40:13;;;;;;;3.50;1.80;;;;;;;28.52;74.52;94557.69;4980566;28;20033;-90
2022/07/07 11:42:54;;;;;;;3.55;1.60;;;;;;;28.95;70.57;94561.72;4980757;28;20033;-90
2022/07/07 11:45:37;;;;;;;6.07;1.60;;;;;;;28.60;66.69;94561.19;4963431;28;20034;-89
2022/07/07 11:48:17;;;;;;;;;;;;;;;;;;;;;
2022/07/07 11:50:53;;;;;;;;;;;;;;;;;;;;;
2022/07/07 11:53:23;;;;;;;6.63;2.05;;;;;;;28.85;70.01;94552.44;4964569;28;20019;-89
2022/07/07 11:55:49;;;;;;;5.10;1.67;;;;;;;29.16;69.81;94558.28;4963464;28;20512;-89
2022/07/07 11:58:14;;;;;;;2.15;1.33;;;;;;;28.44;68.88;94554.19;4980661;28;20055;-89
2022/07/07 12:00:40;;;;;;;3.25;1.88;;;;;;;28.04;68.48;94551.28;4947677;28;20030;-89
2022/07/07 12:03:07;;;;;;;4.65;1.73;;;;;;;28.24;71.81;94555.66;4980267;28;20351;-89
2022/07/07 12:05:45;;;;;;;3.45;1.70;;;;;;;28.82;65.55;94548.56;4963177;28;20038;-88
2022/07/07 12:08:15;;;;;;;3.45;2.08;;;;;;;28.91;62.49;94538.22;4963234;28;20027;-89
2022/07/07 12:10:47;;;;;;;3.08;1.70;;;;;;;29.15;64.10;94532.47;4963451;28;20512;-91
2022/07/07 12:13:16;;;;;;;3.50;1.80;;;;;;;29.41;65.29;94528.66;4962452;28;20037;-91
2022/07/07 12:15:47;;;;;;;4.20;1.75;;;;;;;29.20;61.31;94529.41;4979898;28;20031;-89
2022/07/07 12:18:13;;;;;;;3.05;1.70;;;;;;;30.23;62.06;94525.50;4959593;29;20031;-89
2022/07/07 12:20:40;;;;;;;3.22;1.70;;;;;;;29.13;60.23;94530.16;4943945;29;20031;-88
2022/07/07 12:23:08;;;;;;;3.55;1.80;;;;;;;28.95;62.92;94529.34;4943403;29;20023;-90
2022/07/07 12:25:36;;;;;;;4.13;2.20;;;;;;;27.90;67.22;94526.94;4946789;28;20033;-92
2022/07/07 12:28:08;;;;;;;6.07;1.88;;;;;;;27.40;70.50;94524.66;4946473;28;20129;-89
2022/07/07 12:30:53;;;;;;;5.45;2.00;;;;;;;27.30;72.54;94526.13;4963281;28;20066;-91
2022/07/07 12:33:36;;;;;;;2.33;1.73;;;;;;;28.16;69.48;94514.41;4962332;28;20113;-91
2022/07/07 12:36:22;;;;;;;3.28;1.65;;;;;;;28.13;64.27;94509.78;4962218;28;20062;-90
2022/07/07 12:39:08;;;;;;;3.08;1.90;;;;;;;28.25;63.62;94517.53;4979455;28;20050;-88
2022/07/07 12:41:35;;;;;;;2.15;1.60;;;;;;;28.09;61.33;94505.13;4961604;28;20046;-89
2022/07/07 12:44:22;;;;;;;6.47;1.60;;;;;;;29.06;61.07;94498.56;4962227;28;20023;-88